Sawtelle Peak

Sawtelle summit stationLocated on Sawtelle Peak in the Centennials. Use the Sawtelle SNOdar or the nearest SNOTEL station for snow depth data: White Elephant. The data on this page is also available to view at dataGarrison.com.

 

Elevation
9885ft
Jump to table bottom
Date Time Temperature
deg F
RH, % Wind Speed Wind Gust Wind Direction Pressure Light
02/25/24 01:00 17.8 95 34 45 W - 281 698.440 1
02/25/24 00:00 18.2 95 32 62 W - 288 698.800 1
02/24/24 23:00 19.0 95 34 46 W - 286 698.460 1
02/24/24 22:00 19.2 95 29 68 W - 279 699.300 1
02/24/24 21:00 19.7 96 29 38 W - 279 699.380 1
02/24/24 20:00 19.9 96 30 45 W - 288 699.760 0
02/24/24 19:00 20.0 96 31 49 W - 292 700.200 0
02/24/24 18:00 19.2 95 29 44 W - 288 700.400 131
02/24/24 17:00 18.9 95 29 43 W - 282 700.360 53,656
02/24/24 16:00 18.6 95 31 46 W - 288 700.220 127,388
02/24/24 15:00 17.4 95 31 42 W - 291 701.000 282,478
02/24/24 14:00 16.4 94 35 48 W - 288 700.780 424,856
02/24/24 13:00 16.4 94 35 46 W - 288 701.240 664,865
02/24/24 12:00 15.9 94 38 50 W - 284 700.980 782,835
02/24/24 11:00 15.3 94 37 51 W - 286 701.580 443,162
02/24/24 10:00 14.7 93 36 49 W - 285 701.240 770,631
02/24/24 09:00 14.2 93 36 50 W - 291 701.200 296,716
02/24/24 08:00 13.5 93 35 83 W - 286 701.220 137,049
02/24/24 07:00 13.4 94 34 46 W - 284 701.140 20,350
02/24/24 06:00 13.4 94 28 40 NW - 295 702.260 2
02/24/24 05:00 14.2 85 22 35 NW - 313 702.940 1
02/24/24 04:00 15.3 80 18 35 NW - 326 703.320 1
02/24/24 03:00 14.6 94 25 43 NW - 314 703.180 1
02/24/24 02:00 14.4 94 23 44 NW - 312 703.160 2
02/24/24 01:00 14.6 94 31 61 NW - 293 703.600 4
02/24/24 00:00 13.8 93 33 58 W - 288 703.560 4
02/23/24 23:00 14.4 93 37 48 W - 286 702.980 2
02/23/24 22:00 13.3 93 31 52 W - 289 704.380 4
02/23/24 21:00 14.3 93 25 53 W - 286 704.480 3
02/23/24 20:00 14.4 93 27 72 W - 282 704.580 1
02/23/24 19:00 13.8 94 17 51 W - 277 705.300 1
02/23/24 18:00 12.9 94 24 38 W - 282 705.560 220
02/23/24 17:00 13.8 80 20 33 W - 285 705.760 114,675
02/23/24 16:00 15.5 81 21 33 W - 282 706.260 337,395
02/23/24 15:00 16.6 80 19 29 W - 288 706.500 550,962
02/23/24 14:00 18.3 80 13 33 NW - 298 706.760 750,291
02/23/24 13:00 19.8 75 10 20 NW - 293 707.420 900,805
02/23/24 12:00 21.3 74 7 26 NW - 303 707.700 1,051,319
02/23/24 11:00 25.0 63 7 38 NW - 309 707.840 1,181,493
02/23/24 10:00 22.0 68 8 53 NW - 305 707.980 1,140,814
02/23/24 09:00 16.9 80 12 41 NW - 295 707.740 1,108,270
02/23/24 08:00 16.1 85 14 50 NW - 299 707.320 819,446
02/23/24 07:00 11.9 93 7 43 NW - 316 707.260 35,351
02/23/24 06:00 11.3 92 4 37 NW - 326 707.280 5
02/23/24 05:00 11.5 94 4 24 NW - 331 707.240 1
02/23/24 04:00 11.6 91 7 32 NW - 320 707.100 1
02/23/24 03:00 11.8 90 10 31 NW - 313 707.220 1
02/23/24 02:00 12.6 87 11 42 NW - 317 707.260 1
02/23/24 01:00 13.4 85 11 31 NW - 319 707.260 2
02/23/24 00:00 13.8 88 12 31 NW - 314 707.440 2